Time;durP1;ratioP1;P1;durP2;ratioP2;P2;SDS_P1;SDS_P2;PMS_P1;PMS_P2;Temp;Humidity;BMP_temperature;BMP_pressure;BME280_temperature;BME280_humidity;BME280_pressure;Samples;Min_cycle;Max_cycle;Signal;HPM_P1;HPM_P2
2023/03/27 00:01:18;;;;;;;2.40;1.30;;;8.30;77.50;;;;;;4886048;29;20036;-85
2023/03/27 00:03:47;;;;;;;2.38;1.50;;;8.30;77.50;;;;;;4886555;29;20513;-86
2023/03/27 00:06:16;;;;;;;3.08;1.50;;;8.30;77.50;;;;;;4886953;29;20066;-85
2023/03/27 00:08:43;;;;;;;3.25;1.55;;;8.30;77.50;;;;;;4886195;29;20484;-85
2023/03/27 00:11:09;;;;;;;1.58;1.40;;;8.20;77.50;;;;;;4886093;29;20044;-86
2023/03/27 00:13:35;;;;;;;2.85;1.40;;;8.20;77.50;;;;;;4885918;29;20028;-85
2023/03/27 00:16:01;;;;;;;1.88;1.30;;;8.20;77.50;;;;;;4885885;29;20038;-86
2023/03/27 00:18:28;;;;;;;2.17;1.50;;;8.20;77.50;;;;;;4886980;29;20028;-85
2023/03/27 00:21:00;;;;;;;1.95;1.33;;;8.20;77.50;;;;;;4886527;29;20040;-85
2023/03/27 00:23:29;;;;;;;1.83;1.38;;;8.20;77.50;;;;;;4886119;29;20043;-85
2023/03/27 00:25:56;;;;;;;2.10;1.50;;;8.10;77.50;;;;;;4901858;29;20119;-86
2023/03/27 00:28:26;;;;;;;2.25;1.38;;;8.10;77.50;;;;;;4918278;29;20032;-86
2023/03/27 00:30:53;;;;;;;1.55;1.40;;;8.10;77.50;;;;;;4901240;29;20028;-86
2023/03/27 00:33:20;;;;;;;1.42;1.30;;;8.10;77.50;;;;;;4885680;29;20040;-85
2023/03/27 00:35:47;;;;;;;1.85;1.48;;;8.10;77.50;;;;;;4901751;29;20032;-85
2023/03/27 00:38:14;;;;;;;1.95;1.30;;;8.00;77.50;;;;;;4901259;29;20028;-84
2023/03/27 00:40:42;;;;;;;1.50;1.40;;;8.00;77.50;;;;;;4901900;29;20071;-85
2023/03/27 00:43:27;;;;;;;2.45;1.50;;;8.00;77.50;;;;;;4901379;29;20565;-85
2023/03/27 00:46:04;;;;;;;1.60;1.50;;;8.00;77.60;;;;;;4901369;29;20466;-85
2023/03/27 00:48:34;;;;;;;3.20;1.58;;;8.00;77.50;;;;;;4917802;29;20103;-86
2023/03/27 00:51:01;;;;;;;1.85;1.40;;;7.90;77.50;;;;;;4885688;29;20056;-85
2023/03/27 00:53:28;;;;;;;1.52;1.30;;;7.90;77.50;;;;;;4901677;29;20040;-85
2023/03/27 00:56:00;;;;;;;1.88;1.40;;;7.90;77.50;;;;;;4901083;29;20086;-84
2023/03/27 00:58:30;;;;;;;1.65;1.50;;;7.90;77.60;;;;;;4900825;29;20055;-85
2023/03/27 01:00:56;;;;;;;2.95;1.70;;;7.80;77.60;;;;;;4901127;29;20039;-84
2023/03/27 01:03:30;;;;;;;2.17;1.40;;;7.80;77.60;;;;;;4904017;29;20076;-84
2023/03/27 01:05:59;;;;;;;2.42;1.55;;;7.80;77.60;;;;;;4904272;29;20087;-85
2023/03/27 01:08:27;;;;;;;4.18;1.75;;;7.80;77.60;;;;;;4904228;29;20020;-85
2023/03/27 01:11:11;;;;;;;1.45;1.35;;;7.80;77.60;;;;;;4904157;29;20032;-84
2023/03/27 01:14:10;;;;;;;3.03;1.40;;;7.70;77.60;;;;;;4904219;29;20115;-84
2023/03/27 01:17:07;;;;;;;2.65;1.40;;;7.70;77.60;;;;;;4889141;29;20024;-86
2023/03/27 01:19:57;;;;;;;1.73;1.50;;;7.70;77.60;;;;;;4904346;29;20032;-85
2023/03/27 01:22:43;;;;;;;1.52;1.40;;;7.60;77.60;;;;;;4903636;29;20040;-85
2023/03/27 01:25:25;;;;;;;1.40;1.30;;;7.60;77.60;;;;;;4920608;29;20028;-86
2023/03/27 01:28:09;;;;;;;1.77;1.58;;;7.60;77.60;;;;;;4904100;29;20054;-85
2023/03/27 01:30:38;;;;;;;2.95;1.30;;;7.60;77.70;;;;;;4904359;29;20036;-85
2023/03/27 01:33:33;;;;;;;2.45;1.58;;;7.60;77.70;;;;;;4903875;29;20038;-85
2023/03/27 01:36:27;;;;;;;1.20;1.20;;;7.50;77.70;;;;;;4888285;29;20055;-85
2023/03/27 01:38:58;;;;;;;1.60;1.50;;;7.50;77.70;;;;;;4903811;29;20083;-85
2023/03/27 01:41:34;;;;;;;1.67;1.50;;;7.50;77.60;;;;;;4903824;29;20040;-85
2023/03/27 01:44:16;;;;;;;1.55;1.45;;;7.50;77.70;;;;;;4903936;29;20039;-84
2023/03/27 01:46:52;;;;;;;1.65;1.52;;;7.40;77.70;;;;;;4903544;29;20028;-84
2023/03/27 01:49:33;;;;;;;3.05;1.70;;;7.40;77.60;;;;;;4919583;29;20043;-84
2023/03/27 01:52:05;;;;;;;2.13;1.50;;;7.40;77.70;;;;;;4903362;29;20068;-84
2023/03/27 01:54:37;;;;;;;1.80;1.48;;;7.40;77.70;;;;;;4919302;29;20028;-85
2023/03/27 01:57:21;;;;;;;1.40;1.30;;;7.40;77.70;;;;;;4919382;29;20036;-85
2023/03/27 02:00:09;;;;;;;1.58;1.48;;;7.40;77.80;;;;;;4919264;29;20060;-87
2023/03/27 02:02:52;;;;;;;2.08;1.45;;;7.30;77.70;;;;;;4904361;29;20075;-85
2023/03/27 02:05:43;;;;;;;1.70;1.50;;;7.30;77.60;;;;;;4919182;29;20040;-86
2023/03/27 02:08:23;;;;;;;2.00;1.42;;;7.30;77.70;;;;;;4919506;29;20028;-85
2023/03/27 02:10:56;;;;;;;4.63;1.60;;;7.30;77.70;;;;;;4903295;29;20052;-84
2023/03/27 02:13:49;;;;;;;2.60;1.70;;;7.30;77.70;;;;;;4902724;29;20036;-85
2023/03/27 02:16:24;;;;;;;2.25;1.55;;;7.20;77.70;;;;;;4881493;29;20050;-85
2023/03/27 02:18:58;;;;;;;2.50;1.60;;;7.20;77.70;;;;;;4918811;29;20031;-85
2023/03/27 02:21:24;;;;;;;1.70;1.55;;;7.20;77.70;;;;;;4902523;29;20040;-85
2023/03/27 02:23:51;;;;;;;2.53;1.58;;;7.20;77.70;;;;;;4887411;29;20028;-84
2023/03/27 02:26:18;;;;;;;2.72;1.70;;;7.20;77.70;;;;;;4887194;29;20032;-85
2023/03/27 02:29:01;;;;;;;1.80;1.50;;;7.20;77.70;;;;;;4886914;29;20032;-85
2023/03/27 02:31:55;;;;;;;2.35;1.60;;;7.20;77.80;;;;;;4902674;29;20040;-84
2023/03/27 02:34:49;;;;;;;2.47;1.80;;;7.20;77.80;;;;;;4902738;29;20088;-85
2023/03/27 02:37:16;;;;;;;3.13;1.60;;;7.10;77.80;;;;;;4918792;29;20032;-84
2023/03/27 02:40:27;;;;;;;2.53;1.63;;;7.10;77.70;;;;;;4904421;29;20040;-85
2023/03/27 02:43:40;;;;;;;2.35;1.50;;;7.10;77.70;;;;;;4902360;29;20032;-85
2023/03/27 02:46:31;;;;;;;2.05;1.60;;;7.10;77.80;;;;;;4902068;29;20036;-84
2023/03/27 02:49:03;;;;;;;3.30;1.50;;;7.10;77.70;;;;;;4902595;29;20101;-84
2023/03/27 02:52:00;;;;;;;2.03;1.70;;;7.10;77.70;;;;;;4902304;29;20469;-86
2023/03/27 02:54:33;;;;;;;2.17;1.50;;;7.10;77.80;;;;;;4837549;29;21104;-84
2023/03/27 02:57:06;;;;;;;1.48;1.38;;;7.00;77.70;;;;;;4886842;29;20028;-85
2023/03/27 02:59:56;;;;;;;2.08;1.50;;;7.00;77.80;;;;;;4905122;29;20039;-84
2023/03/27 03:02:28;;;;;;;1.73;1.60;;;7.00;77.80;;;;;;4902340;29;20029;-85
2023/03/27 03:05:02;;;;;;;2.40;1.42;;;7.00;77.80;;;;;;4902174;29;20055;-86
2023/03/27 03:07:37;;;;;;;2.90;1.98;;;7.00;77.80;;;;;;4903716;29;20131;-84
2023/03/27 03:10:07;;;;;;;2.40;1.85;;;7.00;77.80;;;;;;4871011;29;20108;-86
2023/03/27 03:12:33;;;;;;;1.95;1.75;;;7.00;77.80;;;;;;4902248;29;20059;-86
2023/03/27 03:14:59;;;;;;;2.08;1.48;;;7.00;77.80;;;;;;4901939;29;20035;-84
2023/03/27 03:17:24;;;;;;;1.75;1.48;;;7.00;77.80;;;;;;4886247;29;20040;-85
2023/03/27 03:19:53;;;;;;;1.90;1.70;;;7.00;77.80;;;;;;4886820;29;20557;-86
2023/03/27 03:22:18;;;;;;;2.53;1.42;;;7.00;77.80;;;;;;4901883;29;20040;-85
2023/03/27 03:24:44;;;;;;;1.40;1.30;;;7.00;77.80;;;;;;4886121;29;20044;-85
2023/03/27 03:27:13;;;;;;;1.55;1.33;;;7.00;77.80;;;;;;4887086;29;20048;-87
2023/03/27 03:29:49;;;;;;;1.70;1.60;;;6.90;77.80;;;;;;4888660;29;20043;-86
2023/03/27 03:32:18;;;;;;;1.40;1.30;;;6.90;77.80;;;;;;4902141;29;20039;-84
2023/03/27 03:34:45;;;;;;;1.95;1.50;;;6.90;77.80;;;;;;4886072;29;20032;-86
2023/03/27 03:37:13;;;;;;;1.52;1.30;;;6.90;77.80;;;;;;4886272;29;20040;-84
2023/03/27 03:39:39;;;;;;;1.90;1.50;;;6.90;77.80;;;;;;4917971;29;20064;-84
2023/03/27 03:42:05;;;;;;;2.40;1.67;;;6.90;77.80;;;;;;4886113;29;20123;-85
2023/03/27 03:44:33;;;;;;;1.65;1.33;;;6.90;77.80;;;;;;4902105;29;20059;-85
2023/03/27 03:47:07;;;;;;;1.60;1.45;;;6.90;77.80;;;;;;4873820;29;20063;-86
2023/03/27 03:49:32;;;;;;;1.38;1.30;;;6.80;77.80;;;;;;4901553;29;20043;-84
2023/03/27 03:51:58;;;;;;;1.70;1.45;;;6.80;77.80;;;;;;4901128;29;20052;-85
2023/03/27 03:54:24;;;;;;;2.38;1.48;;;6.80;77.80;;;;;;4886375;29;20445;-86
2023/03/27 03:56:50;;;;;;;1.80;1.33;;;6.80;77.80;;;;;;4886486;29;20032;-84
2023/03/27 03:59:16;;;;;;;1.45;1.20;;;6.80;77.80;;;;;;4901248;29;20087;-86
2023/03/27 04:02:27;;;;;;;1.63;1.52;;;6.80;77.80;;;;;;4894442;29;20039;-85
2023/03/27 04:04:57;;;;;;;2.42;1.48;;;6.80;77.80;;;;;;4902187;29;20028;-85
2023/03/27 04:07:30;;;;;;;1.67;1.40;;;6.80;77.80;;;;;;4901773;29;20032;-85
2023/03/27 04:10:14;;;;;;;1.90;1.60;;;6.80;77.80;;;;;;4888603;29;20043;-85
2023/03/27 04:12:44;;;;;;;1.50;1.40;;;6.80;77.80;;;;;;4901259;29;20378;-85
2023/03/27 04:15:16;;;;;;;1.67;1.58;;;6.70;77.80;;;;;;4901619;29;20388;-85
2023/03/27 04:18:00;;;;;;;1.80;1.53;;;6.70;77.80;;;;;;4917181;29;20071;-85
2023/03/27 04:20:26;;;;;;;1.60;1.50;;;6.70;77.80;;;;;;4870673;29;20036;-85
2023/03/27 04:22:54;;;;;;;1.40;1.30;;;6.70;77.80;;;;;;4901554;29;20092;-85
2023/03/27 04:25:22;;;;;;;1.60;1.50;;;6.60;77.80;;;;;;4901511;29;20039;-85
2023/03/27 04:27:52;;;;;;;1.48;1.30;;;6.70;77.90;;;;;;4901094;29;20055;-85
2023/03/27 04:30:23;;;;;;;1.52;1.42;;;6.70;77.90;;;;;;4886290;29;20119;-85
2023/03/27 04:33:19;;;;;;;1.20;1.20;;;6.60;77.80;;;;;;4883268;29;20072;-86
2023/03/27 04:36:07;;;;;;;2.00;1.50;;;6.70;77.80;;;;;;4904191;29;20123;-84
2023/03/27 04:38:41;;;;;;;1.38;1.27;;;6.70;77.80;;;;;;4876792;29;20036;-85
2023/03/27 04:41:07;;;;;;;1.48;1.35;;;6.70;77.80;;;;;;4904716;29;20481;-84
2023/03/27 04:43:35;;;;;;;1.48;1.38;;;6.60;77.80;;;;;;4904543;29;20056;-87
2023/03/27 04:46:03;;;;;;;1.42;1.20;;;6.70;77.90;;;;;;4906050;29;20039;-88
2023/03/27 04:48:31;;;;;;;1.65;1.30;;;6.70;77.80;;;;;;4874569;29;20028;-89
2023/03/27 04:51:00;;;;;;;1.83;1.35;;;6.70;77.80;;;;;;4891145;29;20151;-88
2023/03/27 04:53:35;;;;;;;1.40;1.30;;;6.70;77.80;;;;;;4861644;29;20507;-87
2023/03/27 04:56:01;;;;;;;1.85;1.75;;;6.60;77.80;;;;;;4904742;29;20077;-87
2023/03/27 04:58:27;;;;;;;1.35;1.25;;;6.70;77.80;;;;;;4888666;29;20035;-87
2023/03/27 05:00:55;;;;;;;1.30;1.20;;;6.60;77.80;;;;;;4904596;29;20032;-86
2023/03/27 05:03:50;;;;;;;1.27;1.20;;;6.70;77.80;;;;;;4896410;29;20380;-86
2023/03/27 05:06:35;;;;;;;1.48;1.38;;;6.60;77.80;;;;;;4907316;29;20035;-84
2023/03/27 05:09:02;;;;;;;1.33;1.23;;;6.60;77.80;;;;;;4904148;29;20476;-84
2023/03/27 05:11:31;;;;;;;1.33;1.30;;;6.60;77.80;;;;;;4888635;29;20422;-88
2023/03/27 05:13:58;;;;;;;1.27;1.17;;;6.60;77.80;;;;;;4857683;29;20040;-90
2023/03/27 05:16:26;;;;;;;1.40;1.30;;;6.60;77.90;;;;;;4904838;29;20028;-89
2023/03/27 05:18:58;;;;;;;1.13;1.13;;;6.60;77.90;;;;;;4889337;29;20043;-87
2023/03/27 05:21:24;;;;;;;1.25;1.15;;;6.60;77.90;;;;;;4888556;29;20040;-88
2023/03/27 05:23:49;;;;;;;1.20;1.20;;;6.60;77.90;;;;;;4903697;29;20115;-89
2023/03/27 05:26:21;;;;;;;1.33;1.30;;;6.60;77.90;;;;;;4890855;29;20038;-91
2023/03/27 05:28:54;;;;;;;1.50;1.40;;;6.60;77.90;;;;;;4892085;29;20127;-89
2023/03/27 05:31:21;;;;;;;1.45;1.35;;;6.60;77.90;;;;;;4919654;29;20038;-90
2023/03/27 05:34:01;;;;;;;1.50;1.40;;;6.60;78.00;;;;;;4890008;29;20556;-88
2023/03/27 05:36:30;;;;;;;1.60;1.50;;;6.50;77.90;;;;;;4903660;29;20036;-87
2023/03/27 05:38:57;;;;;;;1.50;1.40;;;6.50;77.90;;;;;;4903774;29;20426;-89
2023/03/27 05:41:31;;;;;;;;;;;6.50;77.90;;;;;;4905486;29;20033;-88
2023/03/27 05:43:57;;;;;;;1.60;1.50;;;6.50;77.80;;;;;;4903566;29;20467;-89
2023/03/27 05:46:26;;;;;;;1.58;1.33;;;6.50;77.80;;;;;;4888097;29;20494;-89
2023/03/27 05:49:00;;;;;;;1.50;1.40;;;6.50;77.90;;;;;;4903989;29;20127;-88
2023/03/27 05:51:26;;;;;;;1.77;1.42;;;6.40;77.90;;;;;;4887483;29;20067;-88
2023/03/27 05:53:52;;;;;;;1.58;1.48;;;6.50;78.00;;;;;;4872172;29;20044;-88
2023/03/27 05:56:25;;;;;;;1.70;1.50;;;6.40;78.00;;;;;;4888575;29;20042;-87
2023/03/27 05:58:57;;;;;;;2.55;1.67;;;6.40;78.00;;;;;;4889002;29;20024;-85
2023/03/27 06:01:25;;;;;;;1.85;1.48;;;6.40;78.00;;;;;;4903824;29;20052;-85
2023/03/27 06:03:54;;;;;;;1.85;1.48;;;6.40;78.00;;;;;;4888268;29;20047;-84
2023/03/27 06:06:25;;;;;;;1.80;1.60;;;6.40;78.00;;;;;;4888895;29;20096;-84
2023/03/27 06:08:57;;;;;;;1.60;1.50;;;6.40;78.00;;;;;;4858480;29;20052;-86
2023/03/27 06:11:24;;;;;;;1.50;1.40;;;6.40;78.00;;;;;;4902910;29;20050;-88
2023/03/27 06:13:50;;;;;;;1.50;1.40;;;6.40;78.00;;;;;;4902728;29;20119;-88
2023/03/27 06:16:25;;;;;;;2.53;1.50;;;6.40;78.00;;;;;;4888538;29;20091;-88
2023/03/27 06:19:16;;;;;;;1.42;1.33;;;6.40;78.10;;;;;;4890557;29;20068;-87
2023/03/27 06:21:48;;;;;;;1.75;1.60;;;6.30;78.00;;;;;;4903160;29;20052;-88
2023/03/27 06:24:13;;;;;;;1.63;1.45;;;6.40;78.10;;;;;;4856390;29;20032;-88
2023/03/27 06:26:43;;;;;;;2.15;1.58;;;6.30;78.00;;;;;;4902405;29;20025;-88
2023/03/27 06:29:09;;;;;;;1.88;1.52;;;6.30;78.10;;;;;;4888685;29;20039;-89
2023/03/27 06:31:43;;;;;;;1.65;1.52;;;6.30;78.10;;;;;;4889126;29;20091;-88
2023/03/27 06:34:31;;;;;;;1.67;1.58;;;6.30;78.70;;;;;;4905871;29;20036;-87
2023/03/27 06:37:17;;;;;;;1.80;1.70;;;6.30;78.00;;;;;;4905231;29;20047;-89
2023/03/27 06:39:43;;;;;;;1.40;1.30;;;6.30;78.00;;;;;;4857126;29;20035;-89
2023/03/27 06:42:09;;;;;;;1.50;1.40;;;6.30;78.00;;;;;;4902688;29;20133;-90
2023/03/27 06:44:57;;;;;;;2.05;1.52;;;6.30;78.10;;;;;;4905578;29;20047;-88
2023/03/27 06:48:01;;;;;;;1.70;1.58;;;6.30;78.00;;;;;;4897136;29;20044;-88
2023/03/27 06:50:39;;;;;;;2.03;1.88;;;6.30;78.00;;;;;;4902627;29;20036;-87
2023/03/27 06:53:07;;;;;;;1.65;1.50;;;6.20;78.00;;;;;;4901984;29;20048;-86
2023/03/27 06:55:39;;;;;;;1.63;1.53;;;6.30;78.10;;;;;;4903442;29;20047;-87
2023/03/27 06:58:05;;;;;;;2.90;1.60;;;6.30;78.10;;;;;;4902993;29;20284;-89
2023/03/27 07:00:34;;;;;;;2.15;1.80;;;6.20;78.00;;;;;;4902010;29;20043;-89
2023/03/27 07:03:20;;;;;;;3.35;1.80;;;6.30;78.10;;;;;;4891874;29;20043;-89
2023/03/27 07:06:13;;;;;;;1.92;1.60;;;6.30;78.10;;;;;;4905274;29;20047;-89
2023/03/27 07:08:50;;;;;;;1.75;1.60;;;6.30;78.10;;;;;;4904560;29;20032;-89
2023/03/27 07:11:17;;;;;;;2.35;1.98;;;6.30;78.10;;;;;;4871577;29;20048;-88
2023/03/27 07:13:51;;;;;;;3.30;1.70;;;6.20;78.10;;;;;;4902904;29;20066;-87
2023/03/27 07:16:26;;;;;;;1.60;1.50;;;6.20;78.10;;;;;;4902080;29;20036;-89
2023/03/27 07:18:51;;;;;;;1.70;1.60;;;6.30;78.10;;;;;;4901906;29;20032;-87
2023/03/27 07:21:17;;;;;;;1.80;1.60;;;6.20;78.10;;;;;;4901939;29;20040;-86
2023/03/27 07:23:45;;;;;;;2.97;1.50;;;6.30;78.20;;;;;;4886501;29;20118;-85
2023/03/27 07:26:13;;;;;;;2.40;1.77;;;6.20;78.10;;;;;;4902037;29;20036;-86
2023/03/27 07:28:53;;;;;;;3.47;1.65;;;6.20;78.10;;;;;;4887613;29;20036;-85
2023/03/27 07:31:19;;;;;;;2.53;1.70;;;6.20;78.10;;;;;;4870731;29;20374;-84
2023/03/27 07:33:46;;;;;;;1.80;1.67;;;6.20;78.10;;;;;;4901834;29;20064;-86
2023/03/27 07:36:13;;;;;;;2.50;2.00;;;6.30;78.10;;;;;;4886170;29;20056;-85
2023/03/27 07:38:42;;;;;;;1.73;1.60;;;6.30;78.10;;;;;;4887151;29;20421;-86
2023/03/27 07:41:21;;;;;;;1.60;1.50;;;6.30;78.10;;;;;;4887910;29;20131;-85
2023/03/27 07:43:59;;;;;;;2.95;1.58;;;6.30;78.70;;;;;;4903284;29;20051;-85
2023/03/27 07:46:30;;;;;;;1.70;1.60;;;6.30;78.10;;;;;;4901705;29;20028;-85
2023/03/27 07:49:01;;;;;;;2.55;1.90;;;6.30;78.10;;;;;;4901966;29;20039;-85
2023/03/27 07:51:27;;;;;;;2.00;1.80;;;6.30;78.10;;;;;;4885182;29;20060;-84
2023/03/27 07:53:55;;;;;;;1.83;1.65;;;6.30;78.10;;;;;;4916910;29;20125;-83
2023/03/27 07:56:25;;;;;;;2.63;1.70;;;6.30;78.10;;;;;;4887944;29;20079;-84
2023/03/27 07:59:29;;;;;;;1.77;1.67;;;6.30;78.10;;;;;;4860464;29;20037;-84
2023/03/27 08:02:00;;;;;;;2.08;1.83;;;6.30;78.00;;;;;;4831497;29;20053;-85
2023/03/27 08:04:27;;;;;;;2.42;1.92;;;6.30;78.00;;;;;;4858634;29;20096;-84
2023/03/27 08:07:04;;;;;;;1.90;1.70;;;6.30;78.00;;;;;;4901063;29;20040;-84
2023/03/27 08:09:30;;;;;;;2.35;1.88;;;6.30;78.00;;;;;;4885733;29;20131;-84
2023/03/27 08:11:57;;;;;;;2.47;1.90;;;6.30;78.00;;;;;;4902599;29;20040;-87
2023/03/27 08:14:25;;;;;;;2.17;1.70;;;6.40;78.10;;;;;;4889698;29;20036;-85
2023/03/27 08:16:52;;;;;;;2.15;1.80;;;6.30;78.00;;;;;;4889978;29;20051;-83
2023/03/27 08:19:24;;;;;;;2.97;1.75;;;6.40;78.00;;;;;;4861118;29;20496;-84
2023/03/27 08:21:54;;;;;;;2.83;1.90;;;6.40;78.00;;;;;;4921033;29;20139;-83
2023/03/27 08:24:20;;;;;;;2.00;1.73;;;6.40;78.00;;;;;;4905160;29;20130;-84
2023/03/27 08:27:07;;;;;;;1.80;1.67;;;6.40;78.00;;;;;;4880379;29;20032;-85
2023/03/27 08:29:39;;;;;;;2.90;1.73;;;6.40;78.00;;;;;;4890995;29;20033;-85
2023/03/27 08:32:05;;;;;;;3.83;1.80;;;6.40;77.90;;;;;;4888981;29;20040;-83
2023/03/27 08:34:32;;;;;;;1.85;1.67;;;6.40;77.90;;;;;;4920511;29;20036;-85
2023/03/27 08:36:58;;;;;;;2.45;1.88;;;6.50;78.00;;;;;;4905090;29;20123;-85
2023/03/27 08:39:33;;;;;;;2.67;1.60;;;6.50;78.00;;;;;;4890327;29;20120;-86
2023/03/27 08:42:07;;;;;;;2.45;1.67;;;6.50;78.00;;;;;;4905359;29;20059;-84
2023/03/27 08:44:37;;;;;;;1.73;1.35;;;6.50;78.00;;;;;;4905637;29;20100;-89
2023/03/27 08:47:14;;;;;;;1.98;1.70;;;6.50;77.90;;;;;;4906023;29;20091;-85
2023/03/27 08:49:52;;;;;;;1.98;1.63;;;6.50;77.90;;;;;;4905638;29;20036;-86
2023/03/27 08:52:30;;;;;;;2.33;1.40;;;6.60;77.90;;;;;;4905759;29;20066;-85
2023/03/27 08:55:17;;;;;;;2.67;1.67;;;6.60;77.80;;;;;;4920416;29;20115;-86
2023/03/27 08:57:51;;;;;;;1.80;1.48;;;6.60;77.80;;;;;;4905681;29;20024;-89
2023/03/27 09:00:30;;;;;;;1.50;1.40;;;6.60;77.70;;;;;;4889892;29;20126;-90
2023/03/27 09:03:44;;;;;;;2.25;1.60;;;6.70;77.80;;;;;;4907271;29;20056;-89
2023/03/27 09:06:26;;;;;;;1.50;1.40;;;6.70;77.70;;;;;;4904741;29;20024;-88
2023/03/27 09:09:09;;;;;;;1.90;1.30;;;6.70;77.70;;;;;;4904432;29;20445;-86
2023/03/27 09:12:00;;;;;;;1.88;1.33;;;6.80;77.70;;;;;;4904439;29;20043;-89
2023/03/27 09:14:39;;;;;;;1.83;1.50;;;6.80;77.70;;;;;;4904575;29;20056;-89
2023/03/27 09:17:17;;;;;;;1.52;1.40;;;6.80;77.60;;;;;;4888919;29;20032;-86
2023/03/27 09:19:57;;;;;;;2.45;1.30;;;6.80;77.60;;;;;;4904280;29;20039;-88
2023/03/27 09:22:30;;;;;;;2.20;1.40;;;6.90;77.60;;;;;;4888519;29;20445;-86
2023/03/27 09:25:14;;;;;;;1.65;1.55;;;6.90;77.60;;;;;;4905436;29;20032;-86
2023/03/27 09:28:29;;;;;;;1.50;1.40;;;6.90;77.50;;;;;;4907225;29;20032;-87
2023/03/27 09:31:26;;;;;;;1.58;1.30;;;7.00;77.60;;;;;;4904028;29;20131;-87
2023/03/27 09:33:54;;;;;;;2.72;1.20;;;7.00;77.60;;;;;;4904074;29;20473;-87
2023/03/27 09:36:23;;;;;;;1.48;1.38;;;7.10;77.50;;;;;;4903886;29;20031;-87
2023/03/27 09:39:01;;;;;;;1.75;1.27;;;7.10;77.50;;;;;;4903783;29;20504;-87
2023/03/27 09:41:45;;;;;;;1.20;1.20;;;7.20;77.60;;;;;;4903804;29;20055;-87
2023/03/27 09:44:19;;;;;;;1.40;1.30;;;7.20;77.50;;;;;;4903910;29;20024;-89
2023/03/27 09:46:50;;;;;;;1.92;1.25;;;7.30;77.50;;;;;;4904508;29;20047;-87
2023/03/27 09:49:19;;;;;;;1.30;1.20;;;7.40;77.40;;;;;;4905784;29;20087;-88
2023/03/27 09:51:53;;;;;;;1.38;1.27;;;7.40;77.40;;;;;;4907263;29;20084;-86
2023/03/27 09:54:54;;;;;;;1.40;1.30;;;7.50;77.40;;;;;;4907012;29;20122;-86
2023/03/27 09:57:34;;;;;;;1.42;1.17;;;7.60;77.50;;;;;;4890970;29;20508;-88
2023/03/27 10:00:08;;;;;;;1.98;1.45;;;7.60;77.30;;;;;;4903585;29;20029;-86
2023/03/27 10:02:40;;;;;;;2.10;1.42;;;7.70;77.40;;;;;;4919841;29;20036;-86
2023/03/27 10:05:16;;;;;;;1.75;1.20;;;7.70;77.30;;;;;;4918730;29;20119;-86
2023/03/27 10:07:45;;;;;;;3.35;1.30;;;7.80;77.40;;;;;;4903843;29;20149;-86
2023/03/27 10:10:36;;;;;;;2.25;1.40;;;7.90;77.30;;;;;;4920182;29;20046;-86
2023/03/27 10:13:09;;;;;;;1.42;1.30;;;7.90;77.20;;;;;;4918958;29;20385;-87
2023/03/27 10:15:41;;;;;;;1.48;1.17;;;8.00;77.20;;;;;;4904291;29;20035;-88
2023/03/27 10:18:28;;;;;;;1.90;1.27;;;8.10;77.20;;;;;;4904213;29;20039;-87
2023/03/27 10:21:37;;;;;;;1.90;1.30;;;8.20;77.30;;;;;;4918820;29;20035;-87
2023/03/27 10:24:31;;;;;;;2.08;1.23;;;8.20;77.10;;;;;;4919803;29;20032;-88
2023/03/27 10:27:10;;;;;;;1.20;1.10;;;8.30;77.20;;;;;;4915918;29;20037;-87
2023/03/27 10:29:41;;;;;;;1.20;1.20;;;8.30;77.10;;;;;;4904184;29;20437;-87
2023/03/27 10:32:11;;;;;;;2.92;1.30;;;8.40;77.10;;;;;;4905022;29;20040;-88
2023/03/27 10:35:02;;;;;;;2.55;1.17;;;8.40;77.10;;;;;;4906079;29;20048;-88
2023/03/27 10:37:54;;;;;;;2.63;1.25;;;8.50;77.20;;;;;;4879938;29;20583;-84
2023/03/27 10:40:55;;;;;;;1.33;1.20;;;8.50;77.20;;;;;;4880197;29;20045;-87
2023/03/27 10:43:38;;;;;;;3.00;1.45;;;8.60;77.20;;;;;;4913141;29;20071;-86
2023/03/27 10:46:12;;;;;;;1.40;1.27;;;8.60;77.30;;;;;;4902847;29;20033;-84
2023/03/27 10:48:59;;;;;;;1.15;1.10;;;8.70;77.40;;;;;;4886686;29;20500;-86
2023/03/27 10:52:13;;;;;;;1.13;1.13;;;8.70;77.40;;;;;;4902537;29;20070;-87
2023/03/27 10:54:55;;;;;;;1.02;1.02;;;8.80;77.50;;;;;;4903982;29;20036;-84
2023/03/27 10:57:27;;;;;;;2.53;1.25;;;8.90;77.30;;;;;;4902451;29;20035;-85
2023/03/27 11:00:00;;;;;;;1.35;1.20;;;8.90;77.40;;;;;;4902102;29;20042;-86
2023/03/27 11:02:48;;;;;;;1.40;1.23;;;9.00;77.50;;;;;;4904086;29;20035;-85
2023/03/27 11:05:23;;;;;;;1.50;1.10;;;9.00;77.40;;;;;;4887021;29;20036;-85
2023/03/27 11:07:51;;;;;;;1.30;1.20;;;9.10;77.40;;;;;;4902429;29;20055;-86
2023/03/27 11:10:25;;;;;;;1.80;1.20;;;9.10;77.30;;;;;;4901731;29;20020;-86
2023/03/27 11:12:56;;;;;;;1.88;1.20;;;9.20;77.30;;;;;;4886369;29;20134;-86
2023/03/27 11:15:35;;;;;;;3.42;1.30;;;9.30;77.40;;;;;;4903298;29;20035;-87
2023/03/27 11:18:10;;;;;;;2.63;1.33;;;9.30;77.40;;;;;;4903838;29;20369;-86
2023/03/27 11:20:55;;;;;;;2.65;1.35;;;9.40;77.40;;;;;;4905118;29;20099;-86
2023/03/27 11:23:56;;;;;;;1.30;1.20;;;9.50;77.40;;;;;;4900055;29;20114;-85
2023/03/27 11:26:52;;;;;;;1.77;1.20;;;9.50;77.30;;;;;;4905222;29;20179;-85
2023/03/27 11:29:28;;;;;;;1.85;1.50;;;9.60;77.30;;;;;;4888046;29;20087;-88
2023/03/27 11:32:02;;;;;;;1.10;1.10;;;9.70;77.30;;;;;;4886581;29;20036;-87
2023/03/27 11:34:58;;;;;;;1.30;1.20;;;9.70;77.30;;;;;;4904413;29;20036;-86
2023/03/27 11:37:50;;;;;;;2.45;1.38;;;9.80;77.40;;;;;;4901978;29;20039;-85
2023/03/27 11:40:33;;;;;;;1.60;1.40;;;9.90;77.40;;;;;;4902186;29;20123;-85
2023/03/27 11:43:01;;;;;;;1.88;1.38;;;10.00;77.40;;;;;;4886573;29;20496;-85
2023/03/27 11:45:40;;;;;;;1.65;1.20;;;10.00;77.30;;;;;;4902009;29;20442;-84
2023/03/27 11:48:28;;;;;;;1.30;1.20;;;10.10;77.40;;;;;;4901675;29;20043;-84
2023/03/27 11:51:02;;;;;;;1.48;1.38;;;10.10;77.40;;;;;;4902754;29;20040;-85
2023/03/27 11:53:48;;;;;;;3.28;1.58;;;10.20;77.40;;;;;;4884318;29;20045;-85
2023/03/27 11:56:23;;;;;;;2.97;1.38;;;10.30;77.60;;;;;;4899357;29;20033;-83
2023/03/27 11:59:01;;;;;;;2.47;1.27;;;10.30;77.50;;;;;;4885607;29;20446;-83
2023/03/27 12:01:48;;;;;;;2.13;1.33;;;10.40;77.50;;;;;;4884388;29;20068;-83
2023/03/27 12:04:43;;;;;;;1.90;1.40;;;10.40;77.60;;;;;;4883412;29;20080;-84
2023/03/27 12:08:20;;;;;;;1.50;1.33;;;10.50;77.70;;;;;;4882851;29;20032;-86
2023/03/27 12:10:51;;;;;;;1.13;1.10;;;10.50;77.50;;;;;;4869390;29;20048;-85
2023/03/27 12:14:03;;;;;;;1.77;1.33;;;10.50;77.60;;;;;;4882779;29;20048;-85
2023/03/27 12:17:02;;;;;;;1.95;1.67;;;10.50;77.80;;;;;;4883576;29;20035;-85
2023/03/27 12:19:58;;;;;;;1.13;1.02;;;10.60;77.80;;;;;;4883339;29;20021;-84
2023/03/27 12:22:47;;;;;;;2.38;1.30;;;10.60;77.80;;;;;;4883591;29;20040;-83
2023/03/27 12:25:55;;;;;;;1.25;1.15;;;10.60;77.80;;;;;;4882676;29;20092;-84
2023/03/27 12:29:04;;;;;;;1.63;1.33;;;10.60;77.80;;;;;;4885346;29;20043;-84
2023/03/27 12:32:27;;;;;;;2.03;1.40;;;10.70;77.70;;;;;;4891889;29;20416;-84
2023/03/27 12:35:02;;;;;;;1.63;1.33;;;10.70;77.80;;;;;;4881807;29;20092;-86
2023/03/27 12:37:53;;;;;;;1.45;1.20;;;10.70;77.70;;;;;;4883170;29;20024;-85
2023/03/27 12:40:30;;;;;;;3.00;1.40;;;10.70;77.80;;;;;;4882393;29;20102;-86
2023/03/27 12:43:30;;;;;;;1.40;1.25;;;10.70;77.80;;;;;;4882373;29;20379;-87
2023/03/27 12:46:23;;;;;;;1.38;1.27;;;10.70;77.90;;;;;;4884947;29;20099;-86
2023/03/27 12:48:53;;;;;;;1.20;1.10;;;10.80;77.80;;;;;;4882672;29;20040;-85
2023/03/27 12:51:38;;;;;;;1.10;1.10;;;10.80;77.80;;;;;;4884835;29;20066;-86
2023/03/27 12:54:32;;;;;;;2.03;1.20;;;10.80;77.90;;;;;;4901134;29;20041;-84
2023/03/27 12:57:20;;;;;;;2.60;1.42;;;10.80;78.00;;;;;;4900736;29;20441;-86
2023/03/27 12:59:50;;;;;;;;;;;10.80;77.90;;;;;;4904510;29;20119;-85
2023/03/27 13:02:49;;;;;;;1.73;1.20;;;10.80;77.80;;;;;;4904029;29;19927;-86
2023/03/27 13:05:40;;;;;;;2.55;1.20;;;10.90;77.80;;;;;;4903854;29;20040;-85
2023/03/27 13:08:45;;;;;;;1.60;1.30;;;10.90;77.90;;;;;;4903650;29;20085;-86
2023/03/27 13:11:57;;;;;;;1.27;1.17;;;10.90;77.90;;;;;;4904812;29;20036;-86
2023/03/27 13:14:38;;;;;;;1.77;1.10;;;10.90;77.80;;;;;;4919147;29;20036;-86
2023/03/27 13:17:22;;;;;;;1.45;1.20;;;11.00;77.80;;;;;;4888645;29;20024;-85
2023/03/27 13:20:17;;;;;;;1.45;1.20;;;11.00;77.80;;;;;;4904420;29;20032;-86
2023/03/27 13:22:52;;;;;;;1.83;1.30;;;11.00;77.90;;;;;;4904161;29;20036;-86
2023/03/27 13:25:26;;;;;;;1.30;1.20;;;11.10;77.90;;;;;;4903775;29;20111;-88
2023/03/27 13:28:27;;;;;;;1.95;1.40;;;11.10;77.90;;;;;;4904046;29;20052;-88
2023/03/27 13:31:24;;;;;;;1.42;1.23;;;11.10;77.90;;;;;;4919188;29;20071;-88
2023/03/27 13:34:09;;;;;;;2.35;1.45;;;11.10;77.80;;;;;;4918143;29;20123;-87
2023/03/27 13:36:41;;;;;;;1.85;1.10;;;11.20;77.70;;;;;;4902987;29;20035;-86
2023/03/27 13:39:08;;;;;;;2.78;1.20;;;11.20;77.60;;;;;;4903738;29;20111;-87
2023/03/27 13:41:45;;;;;;;1.30;1.20;;;11.20;77.60;;;;;;4903185;29;20114;-86
2023/03/27 13:44:28;;;;;;;1.75;1.50;;;11.30;77.70;;;;;;4903457;29;20032;-86
2023/03/27 13:47:00;;;;;;;;;;;11.30;77.70;;;;;;4904183;29;20072;-88
2023/03/27 13:49:31;;;;;;;1.30;1.20;;;11.30;77.70;;;;;;4903985;29;19917;-84
2023/03/27 13:52:42;;;;;;;;;;;11.30;77.50;;;;;;4906131;29;20056;-90